createdAt,value
2017-11-05T00:01:46.592Z,100760.55
2017-11-05T00:04:14.194Z,100758.97
2017-11-05T00:06:41.808Z,100750.87
2017-11-05T00:09:09.488Z,100757.81
2017-11-05T00:11:37.156Z,100745.74
2017-11-05T00:14:04.833Z,100745.34
2017-11-05T00:16:32.507Z,100738.55
2017-11-05T00:19:00.193Z,100743.34
2017-11-05T00:21:27.865Z,100745.81
2017-11-05T00:23:55.538Z,100736.92
2017-11-05T00:26:23.163Z,100738.42
2017-11-05T00:28:50.791Z,100744.91
2017-11-05T00:31:18.618Z,100741.11
2017-11-05T00:33:46.295Z,100738.78
2017-11-05T00:36:13.920Z,100731.45
2017-11-05T00:38:41.577Z,100732.52
2017-11-05T00:41:09.191Z,100731.11
2017-11-05T00:43:36.824Z,100718.81
2017-11-05T00:46:04.502Z,100724.46
2017-11-05T00:48:32.187Z,100729.89
2017-11-05T00:50:59.868Z,100725.58
2017-11-05T00:53:27.534Z,100719.17
2017-11-05T00:55:55.155Z,100722.70
2017-11-05T00:58:22.787Z,100721.30
2017-11-05T01:00:50.515Z,100720.14
2017-11-05T01:03:18.196Z,100710.55
2017-11-05T01:05:45.816Z,100715.21
2017-11-05T01:08:13.554Z,100717.05
2017-11-05T01:10:41.223Z,100712.38
2017-11-05T01:13:08.835Z,100709.06
2017-11-05T01:15:36.495Z,100713.58
2017-11-05T01:18:04.237Z,100716.97
2017-11-05T01:20:31.931Z,100715.20
2017-11-05T01:22:59.619Z,100711.19
2017-11-05T01:25:27.326Z,100711.89
2017-11-05T01:27:54.943Z,100711.96
2017-11-05T01:30:22.623Z,100713.86
2017-11-05T01:32:50.292Z,100712.66
2017-11-05T01:35:17.972Z,100718.52
2017-11-05T01:37:45.709Z,100719.95
2017-11-05T01:40:13.332Z,100708.88
2017-11-05T01:42:40.963Z,100713.53
2017-11-05T01:45:08.648Z,100713.39
2017-11-05T01:47:36.266Z,100714.02
2017-11-05T01:50:03.891Z,100718.41
2017-11-05T01:52:31.613Z,100713.05
2017-11-05T01:54:59.259Z,100708.60
2017-11-05T01:57:26.875Z,100713.88
2017-11-05T01:59:54.591Z,100710.28
2017-11-05T02:02:22.227Z,100710.41
2017-11-05T02:04:49.860Z,100711.70
2017-11-05T02:07:17.555Z,100702.86
2017-11-05T02:09:45.255Z,100707.53
2017-11-05T02:12:12.883Z,100710.14
2017-11-05T02:14:40.555Z,100712.39
2017-11-05T02:17:08.171Z,100707.95
2017-11-05T02:19:35.786Z,100704.14
2017-11-05T02:22:03.471Z,100703.86
2017-11-05T02:24:31.098Z,100702.03
2017-11-05T02:26:58.732Z,100696.53
2017-11-05T02:29:26.411Z,100701.61
2017-11-05T02:31:54.046Z,100703.03
2017-11-05T02:34:22.633Z,100697.80
2017-11-05T02:36:50.412Z,100689.72
2017-11-05T02:39:18.041Z,100692.17
2017-11-05T02:41:45.728Z,100692.81
2017-11-05T02:44:13.410Z,100691.83
2017-11-05T02:46:41.103Z,100697.39
2017-11-05T02:49:08.776Z,100694.86
2017-11-05T02:51:36.517Z,100692.94
2017-11-05T02:54:04.236Z,100697.17
2017-11-05T02:56:31.953Z,100694.70
2017-11-05T02:58:59.724Z,100694.06
2017-11-05T03:01:27.428Z,100694.42
2017-11-05T03:03:55.059Z,100697.44
2017-11-05T03:06:22.915Z,100694.69
2017-11-05T03:08:50.583Z,100687.73
2017-11-05T03:11:18.304Z,100682.09
2017-11-05T03:13:46.055Z,100684.27
2017-11-05T03:16:13.694Z,100687.94
2017-11-05T03:18:41.380Z,100694.78
2017-11-05T03:21:09.068Z,100689.30
2017-11-05T03:23:36.766Z,100691.83
2017-11-05T03:26:04.497Z,100701.34
2017-11-05T03:28:32.281Z,100689.20
2017-11-05T03:30:59.984Z,100694.48
2017-11-05T03:33:27.635Z,100692.09
2017-11-05T03:35:55.318Z,100689.97
2017-11-05T03:38:22.947Z,100690.11
2017-11-05T03:40:50.675Z,100686.88
2017-11-05T03:43:18.361Z,100683.63
2017-11-05T03:45:46.004Z,100693.09
2017-11-05T03:48:13.633Z,100684.41
2017-11-05T03:50:41.319Z,100686.33
2017-11-05T03:53:08.936Z,100686.47
2017-11-05T03:55:36.572Z,100685.91
2017-11-05T03:58:04.254Z,100692.95
2017-11-05T04:00:32.064Z,100688.80
2017-11-05T04:02:59.752Z,100690.14
2017-11-05T04:05:27.444Z,100690.06
2017-11-05T04:07:55.160Z,100689.72
2017-11-05T04:10:22.841Z,100693.05
2017-11-05T04:12:50.535Z,100694.01
2017-11-05T04:15:18.226Z,100693.59
2017-11-05T04:17:45.868Z,100690.84
2017-11-05T04:20:13.679Z,100694.56
2017-11-05T04:22:41.370Z,100691.41
2017-11-05T04:25:09.160Z,100684.91
2017-11-05T04:27:36.834Z,100685.19
2017-11-05T04:30:04.536Z,100678.72
2017-11-05T04:32:32.167Z,100677.47
2017-11-05T04:34:59.953Z,100687.23
2017-11-05T04:37:27.597Z,100684.98
2017-11-05T04:39:55.244Z,100684.92
2017-11-05T04:42:23.017Z,100686.19
2017-11-05T04:44:50.711Z,100684.58
2017-11-05T04:47:18.391Z,100684.70
2017-11-05T04:49:46.191Z,100682.88
2017-11-05T04:52:13.892Z,100687.80
2017-11-05T04:54:41.683Z,100687.22
2017-11-05T04:57:09.417Z,100687.83
2017-11-05T04:59:37.105Z,100683.69
2017-11-05T05:02:04.735Z,100684.53
2017-11-05T05:04:32.418Z,100683.75
2017-11-05T05:07:00.048Z,100679.54
2017-11-05T05:09:27.755Z,100678.25
2017-11-05T05:11:55.440Z,100682.69
2017-11-05T05:14:23.076Z,100682.75
2017-11-05T05:16:50.779Z,100677.95
2017-11-05T05:19:18.475Z,100684.97
2017-11-05T05:21:46.102Z,100683.21
2017-11-05T05:24:13.796Z,100685.47
2017-11-05T05:26:41.467Z,100682.66
2017-11-05T05:29:09.184Z,100688.92
2017-11-05T05:31:36.799Z,100684.68
2017-11-05T05:34:04.456Z,100690.84
2017-11-05T05:36:32.103Z,100687.73
2017-11-05T05:38:59.793Z,100694.77
2017-11-05T05:41:27.478Z,100696.66
2017-11-05T05:43:55.172Z,100696.30
2017-11-05T05:46:22.815Z,100697.38
2017-11-05T05:48:50.513Z,100702.23
2017-11-05T05:51:18.139Z,100705.81
2017-11-05T05:53:45.780Z,100706.66
2017-11-05T05:56:13.534Z,100710.52
2017-11-05T05:58:41.187Z,100712.05
2017-11-05T06:01:08.822Z,100715.80
2017-11-05T06:03:36.555Z,100720.23
2017-11-05T06:06:04.191Z,100716.36
2017-11-05T06:08:31.832Z,100717.17
2017-11-05T06:10:59.515Z,100720.20
2017-11-05T06:13:27.175Z,100719.92
2017-11-05T06:15:54.824Z,100718.13
2017-11-05T06:18:22.498Z,100723.48
2017-11-05T06:20:50.119Z,100717.28
2017-11-05T06:23:17.799Z,100715.09
2017-11-05T06:25:45.499Z,100721.21
2017-11-05T06:28:13.145Z,100716.08
2017-11-05T06:30:40.771Z,100711.28
2017-11-05T06:33:08.452Z,100711.75
2017-11-05T06:35:36.091Z,100718.31
2017-11-05T06:38:03.776Z,100714.89
2017-11-05T06:40:31.558Z,100720.66
2017-11-05T06:42:59.220Z,100713.75
2017-11-05T06:45:26.907Z,100719.16
2017-11-05T06:47:54.649Z,100717.94
2017-11-05T06:50:22.308Z,100709.36
2017-11-05T06:52:50.008Z,100713.89
2017-11-05T06:55:17.756Z,100714.92
2017-11-05T06:57:45.383Z,100702.22
2017-11-05T07:00:13.169Z,100707.55
2017-11-05T07:02:40.867Z,100705.09
2017-11-05T07:05:08.606Z,100703.19
2017-11-05T07:07:36.253Z,100697.64
2017-11-05T07:10:04.000Z,100701.30
2017-11-05T07:12:31.691Z,100700.28
2017-11-05T07:14:59.404Z,100701.02
2017-11-05T07:17:27.167Z,100698.41
2017-11-05T07:19:54.804Z,100699.85
2017-11-05T07:22:22.451Z,100703.42
2017-11-05T07:24:50.140Z,100697.89
2017-11-05T07:27:17.766Z,100695.75
2017-11-05T07:29:45.417Z,100692.55
2017-11-05T07:32:13.267Z,100683.63
2017-11-05T07:34:40.911Z,100687.67
2017-11-05T07:37:08.539Z,100683.89
2017-11-05T07:39:36.378Z,100685.28
2017-11-05T07:42:04.012Z,100684.02
2017-11-05T07:44:31.743Z,100683.53
2017-11-05T07:46:59.434Z,100685.96
2017-11-05T07:49:27.074Z,100682.13
2017-11-05T07:51:54.776Z,100680.29
2017-11-05T07:54:22.461Z,100677.67
2017-11-05T07:56:50.104Z,100680.50
2017-11-05T07:59:17.756Z,100683.33
2017-11-05T08:01:45.431Z,100678.36
2017-11-05T08:04:13.066Z,100676.25
2017-11-05T08:06:40.739Z,100677.18
2017-11-05T08:09:08.496Z,100676.98
2017-11-05T08:11:36.127Z,100673.32
2017-11-05T08:14:03.760Z,100672.64
2017-11-05T08:16:31.468Z,100677.36
2017-11-05T08:18:59.161Z,100672.91
2017-11-05T08:21:26.803Z,100668.61
2017-11-05T08:23:54.548Z,100668.20
2017-11-05T08:26:22.163Z,100666.27
2017-11-05T08:28:49.873Z,100668.53
2017-11-05T08:31:17.547Z,100661.53
2017-11-05T08:33:45.220Z,100654.05
2017-11-05T08:36:12.900Z,100656.56
2017-11-05T08:38:40.571Z,100652.44
2017-11-05T08:41:08.208Z,100656.04
2017-11-05T08:43:35.856Z,100652.12
2017-11-05T08:46:03.535Z,100650.78
2017-11-05T08:48:31.243Z,100645.42
2017-11-05T08:50:58.948Z,100641.41
2017-11-05T08:53:26.641Z,100630.28
2017-11-05T08:55:54.339Z,100629.28
2017-11-05T09:05:21.214Z,100623.33
2017-11-05T09:07:48.963Z,100620.16
2017-11-05T09:10:16.657Z,100616.09
2017-11-05T09:12:44.383Z,100607.14
2017-11-05T09:15:12.071Z,100612.63
2017-11-05T09:17:39.707Z,100606.01
2017-11-05T09:20:07.432Z,100612.50
2017-11-05T09:22:35.048Z,100605.09
2017-11-05T09:25:02.672Z,100599.73
2017-11-05T09:27:30.341Z,100598.20
2017-11-05T09:29:57.964Z,100590.11
2017-11-05T09:32:25.656Z,100580.08
2017-11-05T09:34:53.345Z,100577.52
2017-11-05T09:37:21.034Z,100571.84
2017-11-05T09:39:48.715Z,100570.98
2017-11-05T09:42:16.447Z,100569.73
2017-11-05T09:44:44.059Z,100568.22
2017-11-05T09:47:11.753Z,100559.29
2017-11-05T09:49:39.432Z,100561.10
2017-11-05T09:52:07.125Z,100565.59
2017-11-05T09:54:34.740Z,100562.74
2017-11-05T09:57:02.485Z,100562.37
2017-11-05T09:59:30.161Z,100559.32
2017-11-05T10:01:57.776Z,100551.94
2017-11-05T10:04:25.450Z,100547.91
2017-11-05T10:06:53.060Z,100546.96
2017-11-05T10:09:20.728Z,100534.36
2017-11-05T10:11:48.376Z,100537.45
2017-11-05T10:14:15.993Z,100530.78
2017-11-05T10:16:43.620Z,100526.20
2017-11-05T10:19:11.279Z,100527.30
2017-11-05T10:21:38.896Z,100521.84
2017-11-05T10:24:06.576Z,100510.78
2017-11-05T10:26:34.292Z,100508.37
2017-11-05T10:29:01.959Z,100507.05
2017-11-05T10:31:29.575Z,100500.58
2017-11-05T10:33:57.228Z,100494.65
2017-11-05T10:36:24.843Z,100492.84
2017-11-05T10:38:52.453Z,100493.15
2017-11-05T10:41:20.127Z,100484.39
2017-11-05T10:43:47.752Z,100480.45
2017-11-05T10:46:15.428Z,100475.12
2017-11-05T10:48:43.094Z,100471.10
2017-11-05T10:51:10.707Z,100470.11
2017-11-05T10:53:38.316Z,100463.86
2017-11-05T10:56:06.029Z,100457.89
2017-11-05T10:58:33.643Z,100454.97
2017-11-05T11:01:01.316Z,100453.34
2017-11-05T11:03:29.045Z,100451.55
2017-11-05T11:05:56.717Z,100447.94
2017-11-05T11:08:24.338Z,100444.18
2017-11-05T11:10:52.048Z,100438.36
2017-11-05T11:13:19.721Z,100427.69
2017-11-05T11:15:47.331Z,100425.36
2017-11-05T11:18:14.982Z,100422.91
2017-11-05T11:20:42.591Z,100415.45
2017-11-05T11:23:10.199Z,100410.56
2017-11-05T11:25:37.847Z,100400.05
2017-11-05T11:28:05.463Z,100400.20
2017-11-05T11:30:33.060Z,100406.63
2017-11-05T11:33:00.764Z,100398.31
2017-11-05T11:35:28.436Z,100400.86
2017-11-05T11:37:56.039Z,100401.62
2017-11-05T11:40:23.761Z,100390.00
2017-11-05T11:42:51.373Z,100384.42
2017-11-05T11:45:18.970Z,100391.34
2017-11-05T11:47:46.680Z,100389.80
2017-11-05T11:50:14.351Z,100384.80
2017-11-05T11:52:41.952Z,100388.67
2017-11-05T11:55:09.592Z,100386.67
2017-11-05T11:57:37.207Z,100386.16
2017-11-05T12:00:04.867Z,100379.44
2017-11-05T12:02:32.536Z,100382.80
2017-11-05T12:05:00.204Z,100380.44
2017-11-05T12:07:27.812Z,100373.84
2017-11-05T12:09:55.545Z,100376.84
2017-11-05T12:12:23.138Z,100369.80
2017-11-05T12:14:50.797Z,100370.03
2017-11-05T12:17:18.512Z,100366.00
2017-11-05T12:19:46.190Z,100361.58
2017-11-05T12:22:13.791Z,100360.18
2017-11-05T12:24:41.540Z,100368.06
2017-11-05T12:27:09.147Z,100357.45
2017-11-05T12:29:36.788Z,100359.80
2017-11-05T12:32:05.699Z,100358.92
2017-11-05T12:34:33.334Z,100354.48
2017-11-05T12:37:00.943Z,100349.06
2017-11-05T12:39:28.732Z,100352.62
2017-11-05T12:41:56.334Z,100352.62
2017-11-05T12:44:23.944Z,100345.37
2017-11-05T12:46:51.618Z,100344.81
2017-11-05T12:49:19.232Z,100340.80
2017-11-05T12:51:46.952Z,100339.17
2017-11-05T12:54:14.610Z,100335.34
2017-11-05T12:56:42.239Z,100329.18
2017-11-05T12:59:09.906Z,100324.42
2017-11-05T13:01:37.559Z,100321.39
2017-11-05T13:04:05.178Z,100322.03
2017-11-05T13:06:32.783Z,100314.23
2017-11-05T13:09:00.443Z,100322.13
2017-11-05T13:11:28.111Z,100316.39
2017-11-05T13:13:55.725Z,100322.41
2017-11-05T13:16:23.503Z,100316.53
2017-11-05T13:18:51.125Z,100312.56
2017-11-05T13:21:18.724Z,100313.50
2017-11-05T13:23:46.383Z,100311.63
2017-11-05T13:26:13.989Z,100302.71
2017-11-05T13:28:41.603Z,100303.51
2017-11-05T13:31:09.325Z,100298.13
2017-11-05T13:33:36.992Z,100296.25
2017-11-05T13:36:04.612Z,100296.12
2017-11-05T13:38:32.329Z,100291.97
2017-11-05T13:40:59.993Z,100290.38
2017-11-05T13:43:27.593Z,100290.19
2017-11-05T13:45:55.269Z,100282.06
2017-11-05T13:48:22.937Z,100282.02
2017-11-05T13:50:50.553Z,100279.50
2017-11-05T13:53:18.271Z,100280.52
2017-11-05T13:55:45.895Z,100279.48
2017-11-05T13:58:13.556Z,100279.80
2017-11-05T14:00:41.288Z,100276.38
2017-11-05T14:03:08.903Z,100274.87
2017-11-05T14:05:36.568Z,100269.17
2017-11-05T14:08:04.307Z,100274.39
2017-11-05T14:10:31.973Z,100264.08
2017-11-05T14:12:59.572Z,100267.49
2017-11-05T14:15:27.216Z,100267.73
2017-11-05T14:17:54.879Z,100262.29
2017-11-05T14:20:22.560Z,100269.00
2017-11-05T14:22:50.225Z,100268.42
2017-11-05T14:25:17.823Z,100266.98
2017-11-05T14:27:45.469Z,100263.60
2017-11-05T14:30:13.123Z,100267.75
2017-11-05T14:32:40.792Z,100265.56
2017-11-05T14:35:08.392Z,100267.15
2017-11-05T14:37:36.060Z,100269.78
2017-11-05T14:40:03.744Z,100271.48
2017-11-05T14:42:31.415Z,100268.05
2017-11-05T14:44:59.099Z,100263.48
2017-11-05T14:47:26.791Z,100264.64
2017-11-05T14:49:54.464Z,100263.98
2017-11-05T14:52:22.132Z,100262.01
2017-11-05T14:54:49.739Z,100263.59
2017-11-05T14:57:17.348Z,100268.19
2017-11-05T14:59:45.064Z,100257.05
2017-11-05T15:02:12.688Z,100270.06
2017-11-05T15:04:40.364Z,100272.13
2017-11-05T15:07:08.024Z,100271.97
2017-11-05T15:09:35.716Z,100274.70
2017-11-05T15:12:03.339Z,100275.70
2017-11-05T15:14:31.010Z,100276.39
2017-11-05T15:16:58.687Z,100283.34
2017-11-05T15:19:26.333Z,100282.75
2017-11-05T15:21:54.011Z,100285.98
2017-11-05T15:24:21.669Z,100287.16
2017-11-05T15:26:49.344Z,100293.88
2017-11-05T15:29:17.016Z,100295.48
2017-11-05T15:31:44.679Z,100295.95
2017-11-05T15:34:12.369Z,100298.84
2017-11-05T15:36:40.151Z,100302.09
2017-11-05T15:39:07.868Z,100307.95
2017-11-05T15:41:35.543Z,100301.10
2017-11-05T15:44:03.364Z,100303.58
2017-11-05T15:46:31.040Z,100302.97
2017-11-05T15:48:58.773Z,100300.06
2017-11-05T15:51:26.569Z,100306.59
2017-11-05T15:53:54.240Z,100309.81
2017-11-05T15:56:21.884Z,100308.09
2017-11-05T15:58:49.660Z,100312.77
2017-11-05T16:01:17.280Z,100311.37
2017-11-05T16:03:44.903Z,100316.28
2017-11-05T16:06:12.570Z,100312.28
2017-11-05T16:08:40.235Z,100319.43
2017-11-05T16:11:07.921Z,100321.53
2017-11-05T16:13:35.594Z,100321.05
2017-11-05T16:16:03.308Z,100320.41
2017-11-05T16:18:30.984Z,100327.74
2017-11-05T16:20:58.635Z,100328.27
2017-11-05T16:23:26.304Z,100333.14
2017-11-05T16:25:53.919Z,100327.56
2017-11-05T16:28:21.637Z,100325.89
2017-11-05T16:30:49.262Z,100327.43
2017-11-05T16:33:16.939Z,100327.23
2017-11-05T16:35:44.597Z,100321.55
2017-11-05T16:38:12.224Z,100324.77
2017-11-05T16:40:39.892Z,100326.20
2017-11-05T16:43:07.620Z,100329.34
2017-11-05T16:45:35.230Z,100322.02
2017-11-05T16:48:02.847Z,100324.22
2017-11-05T16:50:30.564Z,100327.44
2017-11-05T16:52:58.243Z,100329.42
2017-11-05T16:55:25.897Z,100329.88
2017-11-05T16:57:53.566Z,100335.31
2017-11-05T17:00:21.347Z,100329.33
2017-11-05T17:02:48.980Z,100327.83
2017-11-05T17:05:16.662Z,100325.58
2017-11-05T17:07:44.350Z,100321.95
2017-11-05T17:10:12.021Z,100324.22
2017-11-05T17:12:39.706Z,100322.21
2017-11-05T17:15:07.386Z,100320.39
2017-11-05T17:17:35.060Z,100321.41
2017-11-05T17:20:02.816Z,100317.12
2017-11-05T17:22:30.442Z,100316.23
2017-11-05T17:24:58.136Z,100312.86
2017-11-05T17:27:25.811Z,100315.99
2017-11-05T17:29:53.487Z,100314.59
2017-11-05T17:32:21.176Z,100319.83
2017-11-05T17:34:48.866Z,100321.87
2017-11-05T17:37:16.491Z,100319.19
2017-11-05T17:39:44.162Z,100324.42
2017-11-05T17:42:11.824Z,100326.00
2017-11-05T17:44:39.506Z,100328.11
2017-11-05T17:47:07.196Z,100325.11
2017-11-05T17:49:34.860Z,100328.27
2017-11-05T17:52:02.482Z,100320.03
2017-11-05T17:54:30.104Z,100313.77
2017-11-05T17:56:57.768Z,100312.92
2017-11-05T17:59:25.435Z,100306.91
2017-11-05T18:01:53.049Z,100311.97
2017-11-05T18:04:20.777Z,100307.74
2017-11-05T18:06:48.451Z,100304.18
2017-11-05T18:09:16.063Z,100306.84
2017-11-05T18:11:43.751Z,100304.66
2017-11-05T18:14:11.364Z,100305.11
2017-11-05T18:16:38.994Z,100307.20
2017-11-05T18:19:06.708Z,100318.18
2017-11-05T18:21:34.318Z,100311.35
2017-11-05T18:24:01.925Z,100316.48
2017-11-05T18:26:29.648Z,100317.63
2017-11-05T18:28:57.280Z,100310.23
2017-11-05T18:31:24.887Z,100311.91
2017-11-05T18:33:52.653Z,100301.72
2017-11-05T18:36:20.267Z,100304.55
2017-11-05T18:38:47.878Z,100298.42
2017-11-05T18:41:15.606Z,100297.36
2017-11-05T18:43:43.221Z,100303.14
2017-11-05T18:46:10.831Z,100308.55
2017-11-05T18:48:39.036Z,100305.31
2017-11-05T18:51:06.648Z,100300.54
2017-11-05T18:53:34.658Z,100308.97
2017-11-05T18:56:03.004Z,100310.95
2017-11-05T18:58:31.852Z,100308.21
2017-11-05T19:00:59.483Z,100309.48
2017-11-05T19:03:27.150Z,100302.45
2017-11-05T19:05:54.840Z,100303.14
2017-11-05T19:08:22.513Z,100302.23
2017-11-05T19:10:50.170Z,100298.42
2017-11-05T19:13:18.204Z,100297.94
2017-11-05T19:15:45.816Z,100298.31
2017-11-05T19:18:13.480Z,100305.25
2017-11-05T19:20:41.098Z,100301.47
2017-11-05T19:23:08.776Z,100305.52
2017-11-05T19:25:36.444Z,100305.41
2017-11-05T19:28:04.048Z,100317.55
2017-11-05T19:30:31.656Z,100305.52
2017-11-05T19:32:59.323Z,100310.80
2017-11-05T19:35:26.992Z,100310.51
2017-11-05T19:37:54.605Z,100312.47
2017-11-05T19:40:22.371Z,100310.00
2017-11-05T19:42:50.007Z,100313.38
2017-11-05T19:45:17.681Z,100308.59
2017-11-05T19:47:45.409Z,100307.97
2017-11-05T19:50:13.042Z,100304.68
2017-11-05T19:52:40.652Z,100312.39
2017-11-05T19:55:08.315Z,100308.31
2017-11-05T19:57:35.932Z,100309.95
2017-11-05T20:00:03.605Z,100303.26
2017-11-05T20:02:31.280Z,100315.29
2017-11-05T20:04:58.900Z,100309.04
2017-11-05T20:07:26.512Z,100309.95
2017-11-05T20:09:54.194Z,100310.31
2017-11-05T20:12:21.804Z,100305.23
2017-11-05T20:14:49.477Z,100308.62
2017-11-05T20:17:17.196Z,100310.58
2017-11-05T20:19:44.861Z,100309.80
2017-11-05T20:22:12.544Z,100304.23
2017-11-05T20:24:40.288Z,100307.81
2017-11-05T20:27:07.960Z,100299.97
2017-11-05T20:29:35.571Z,100301.80
2017-11-05T20:32:03.228Z,100304.89
2017-11-05T20:34:30.837Z,100303.05
2017-11-05T20:36:58.456Z,100303.02
2017-11-05T20:39:26.100Z,100299.38
2017-11-05T20:41:53.711Z,100304.33
2017-11-05T20:44:21.320Z,100303.88
2017-11-05T20:46:49.037Z,100305.41
2017-11-05T20:49:16.640Z,100305.81
2017-11-05T20:51:44.263Z,100307.20
2017-11-05T20:54:12.003Z,100301.80
2017-11-05T20:56:39.611Z,100300.47
2017-11-05T20:59:07.261Z,100295.01
2017-11-05T21:01:34.979Z,100301.64
2017-11-05T21:04:02.593Z,100297.12
2017-11-05T21:06:30.212Z,100288.98
2017-11-05T21:08:57.888Z,100292.91
2017-11-05T21:11:25.575Z,100300.21
2017-11-05T21:13:53.185Z,100298.94
2017-11-05T21:16:20.854Z,100293.19
2017-11-05T21:18:48.463Z,100289.25
2017-11-05T21:21:16.067Z,100292.18
2017-11-05T21:23:43.784Z,100286.27
2017-11-05T21:26:11.399Z,100282.62
2017-11-05T21:28:39.000Z,100283.95
2017-11-05T21:31:06.699Z,100277.25
2017-11-05T21:33:34.425Z,100274.52
2017-11-05T21:36:02.036Z,100274.59
2017-11-05T21:38:29.752Z,100272.77
2017-11-05T21:40:57.359Z,100279.37
2017-11-05T21:43:24.969Z,100279.92
2017-11-05T21:45:52.627Z,100269.88
2017-11-05T21:48:20.236Z,100270.20
2017-11-05T21:50:47.905Z,100270.97
2017-11-05T21:53:15.579Z,100275.27
2017-11-05T21:55:43.179Z,100267.50
2017-11-05T21:58:10.790Z,100264.92
2017-11-05T22:00:38.443Z,100255.48
2017-11-05T22:03:06.051Z,100264.43
2017-11-05T22:05:33.716Z,100262.72
2017-11-05T22:08:01.390Z,100257.76
2017-11-05T22:10:29.003Z,100258.31
2017-11-05T22:12:56.669Z,100255.00
2017-11-05T22:15:24.319Z,100254.23
2017-11-05T22:17:51.938Z,100251.77
2017-11-05T22:20:19.615Z,100248.88
2017-11-05T22:22:47.335Z,100259.10
2017-11-05T22:25:14.954Z,100254.59
2017-11-05T22:27:42.560Z,100245.45
2017-11-05T22:30:10.212Z,100248.70
2017-11-05T22:32:37.880Z,100250.95
2017-11-05T22:35:05.552Z,100248.96
2017-11-05T22:37:33.263Z,100250.42
2017-11-05T22:40:00.875Z,100248.13
2017-11-05T22:42:28.535Z,100240.73
2017-11-05T22:44:56.191Z,100248.16
2017-11-05T22:47:23.796Z,100246.34
2017-11-05T22:49:51.408Z,100239.75
2017-11-05T22:52:19.072Z,100243.87
2017-11-05T22:54:46.745Z,100248.08
2017-11-05T22:57:14.359Z,100242.39
2017-11-05T22:59:42.019Z,100242.03
2017-11-05T23:02:09.708Z,100238.23
2017-11-05T23:04:37.315Z,100238.23
2017-11-05T23:07:04.983Z,100234.56
2017-11-05T23:09:32.651Z,100226.04
2017-11-05T23:12:00.261Z,100231.02
2017-11-05T23:14:27.917Z,100232.80
2017-11-05T23:16:55.529Z,100231.02
2017-11-05T23:19:23.126Z,100229.48
2017-11-05T23:21:50.848Z,100235.24
2017-11-05T23:24:18.460Z,100234.79
2017-11-05T23:26:46.066Z,100235.05
2017-11-05T23:29:13.731Z,100240.80
2017-11-05T23:31:41.339Z,100236.55
2017-11-05T23:34:08.939Z,100232.57
2017-11-05T23:36:36.603Z,100239.23
2017-11-05T23:39:04.308Z,100238.39
2017-11-05T23:41:31.916Z,100237.34
2017-11-05T23:43:59.631Z,100234.88
2017-11-05T23:46:27.236Z,100232.41
2017-11-05T23:48:54.835Z,100234.64
2017-11-05T23:51:22.551Z,100234.64
2017-11-05T23:53:50.169Z,100237.80
2017-11-05T23:56:17.840Z,100242.55
2017-11-05T23:58:45.505Z,100242.53
